Time;durP1;ratioP1;P1;durP2;ratioP2;P2;SDS_P1;SDS_P2;PMS_P1;PMS_P2;Temp;Humidity;BMP_temperature;BMP_pressure;BME280_temperature;BME280_humidity;BME280_pressure;Samples;Min_cycle;Max_cycle;Signal;HPM_P1;HPM_P2
2021/12/08 00:01:26;;;;;;;9.63;4.65;;;2.40;99.90;;;;;;4996935;28;20065;-88
2021/12/08 00:03:53;;;;;;;12.30;4.50;;;2.50;99.90;;;;;;5014172;28;20030;-88
2021/12/08 00:06:19;;;;;;;16.42;4.90;;;2.60;99.90;;;;;;5013344;28;20039;-89
2021/12/08 00:08:59;;;;;;;20.83;5.40;;;3.50;99.90;;;;;;4997192;28;20026;-88
2021/12/08 00:14:09;;;;;;;16.15;5.55;;;2.40;99.90;;;;;;5013548;28;20035;-88
2021/12/08 00:16:35;;;;;;;11.15;5.07;;;2.40;99.90;;;;;;5013308;28;20018;-89
2021/12/08 00:19:06;;;;;;;16.15;5.80;;;2.20;99.90;;;;;;5013549;28;20050;-89
2021/12/08 00:21:32;;;;;;;14.77;5.93;;;2.60;99.90;;;;;;5013862;28;20034;-90
2021/12/08 00:23:57;;;;;;;11.48;5.57;;;2.40;99.90;;;;;;5014358;28;20118;-90
2021/12/08 00:26:23;;;;;;;14.00;5.65;;;2.80;99.90;;;;;;5014378;28;20027;-89
2021/12/08 00:28:49;;;;;;;14.48;6.22;;;2.40;99.90;;;;;;4997198;28;20031;-89
2021/12/08 00:31:15;;;;;;;15.98;7.18;;;2.40;99.90;;;;;;5013081;28;20077;-90
2021/12/08 00:33:41;;;;;;;14.20;6.22;;;2.40;99.90;;;;;;5013625;28;20022;-89
2021/12/08 00:36:14;;;;;;;17.67;6.50;;;2.40;99.90;;;;;;5012740;28;20046;-89
2021/12/08 00:38:39;;;;;;;19.60;7.85;;;3.00;99.90;;;;;;4996829;28;20035;-89
2021/12/08 00:41:06;;;;;;;16.00;6.50;;;2.40;99.90;;;;;;5012811;28;20042;-90
2021/12/08 00:43:32;;;;;;;15.50;6.28;;;2.00;99.90;;;;;;5013044;28;20038;-89
2021/12/08 00:45:58;;;;;;;15.80;6.90;;;2.40;99.90;;;;;;5016483;28;20026;-90
2021/12/08 00:48:23;;;;;;;19.85;7.18;;;2.50;99.90;;;;;;5016502;28;20030;-89
2021/12/08 00:50:50;;;;;;;20.23;6.35;;;2.60;99.90;;;;;;5000406;28;20053;-89
2021/12/08 00:53:16;;;;;;;19.65;7.22;;;2.50;99.90;;;;;;5000449;28;20058;-89
2021/12/08 00:55:44;;;;;;;13.25;6.38;;;2.60;99.90;;;;;;5017490;28;20042;-90
2021/12/08 00:58:10;;;;;;;21.98;6.30;;;3.30;99.90;;;;;;5017459;28;20038;-89
2021/12/08 01:00:41;;;;;;;12.63;5.60;;;3.50;99.90;;;;;;5016183;28;20035;-90
2021/12/08 01:03:11;;;;;;;13.13;5.47;;;2.80;99.90;;;;;;4999630;28;20049;-90
2021/12/08 01:05:40;;;;;;;17.17;5.85;;;2.60;99.90;;;;;;5016840;28;20034;-90
2021/12/08 01:08:07;;;;;;;16.55;5.70;;;2.60;99.90;;;;;;4999905;28;20042;-90
2021/12/08 01:10:34;;;;;;;18.08;6.32;;;2.60;99.90;;;;;;5015817;28;20061;-89
2021/12/08 01:13:00;;;;;;;17.77;6.78;;;2.50;99.90;;;;;;4999180;28;20030;-89
2021/12/08 01:15:28;;;;;;;18.25;6.35;;;2.90;99.90;;;;;;5015843;28;20128;-89
2021/12/08 01:17:55;;;;;;;12.32;5.72;;;2.80;99.90;;;;;;5015818;28;20042;-89
2021/12/08 01:20:22;;;;;;;11.25;5.40;;;2.90;99.90;;;;;;5015990;28;20051;-89
2021/12/08 01:22:48;;;;;;;19.48;5.65;;;2.90;99.90;;;;;;4999622;28;20046;-90
2021/12/08 01:25:14;;;;;;;8.95;4.70;;;3.00;99.90;;;;;;5015920;28;20049;-89
2021/12/08 01:27:40;;;;;;;9.27;3.35;;;3.10;99.90;;;;;;5015676;28;20078;-90
2021/12/08 01:30:10;;;;;;;14.45;4.88;;;3.00;99.90;;;;;;4999750;28;20076;-90
2021/12/08 01:32:36;;;;;;;19.42;5.95;;;3.00;99.90;;;;;;5015919;28;20062;-89
2021/12/08 01:35:04;;;;;;;11.75;4.85;;;3.10;99.90;;;;;;4999434;28;20057;-90
2021/12/08 01:37:30;;;;;;;15.63;5.15;;;3.20;99.90;;;;;;5015279;28;20034;-90
2021/12/08 01:39:55;;;;;;;12.68;4.60;;;3.00;99.90;;;;;;5015470;28;20038;-90
2021/12/08 01:42:32;;;;;;;12.23;4.82;;;3.80;99.90;;;;;;5015263;28;20037;-90
2021/12/08 01:47:45;;;;;;;9.95;5.28;;;3.20;99.90;;;;;;5015397;28;20046;-90
2021/12/08 01:50:11;;;;;;;14.73;5.45;;;3.00;99.90;;;;;;5014953;28;20307;-90
2021/12/08 01:52:37;;;;;;;15.20;6.72;;;3.00;99.90;;;;;;5014948;28;20055;-89
2021/12/08 01:55:05;;;;;;;16.02;6.50;;;2.90;99.90;;;;;;5014622;28;20033;-90
2021/12/08 01:57:38;;;;;;;12.20;4.63;;;3.20;99.90;;;;;;5014765;28;20034;-90
2021/12/08 02:00:17;;;;;;;12.27;4.25;;;3.40;99.90;;;;;;4998533;28;20053;-91
2021/12/08 02:02:43;;;;;;;10.38;5.00;;;3.20;99.90;;;;;;5014685;28;20050;-90
2021/12/08 02:05:12;;;;;;;9.70;4.57;;;3.20;99.90;;;;;;5014735;28;20062;-90
2021/12/08 02:07:38;;;;;;;9.07;4.45;;;3.20;99.90;;;;;;5015855;28;20054;-87
2021/12/08 02:10:04;;;;;;;;;;;3.00;99.90;;;;;;5015113;28;20046;-87
2021/12/08 02:12:33;;;;;;;14.93;5.50;;;3.30;99.90;;;;;;4999181;28;19910;-87
2021/12/08 02:14:59;;;;;;;11.20;5.35;;;4.20;99.90;;;;;;4998439;28;20053;-87
2021/12/08 02:17:25;;;;;;;12.93;6.18;;;3.30;99.90;;;;;;5014583;28;20026;-88
2021/12/08 02:19:51;;;;;;;;;;;3.60;99.90;;;;;;5015421;28;20042;-88
2021/12/08 02:22:19;;;;;;;14.48;5.90;;;3.20;99.90;;;;;;4998173;28;19937;-88
2021/12/08 02:24:50;;;;;;;12.82;5.72;;;3.20;99.90;;;;;;4998837;28;20042;-89
2021/12/08 02:27:16;;;;;;;13.02;6.07;;;3.10;99.90;;;;;;4998628;28;20038;-88
2021/12/08 02:29:50;;;;;;;10.95;5.53;;;4.00;99.90;;;;;;5014430;28;20094;-89
2021/12/08 02:48:33;;;;;;;12.35;4.60;;;3.20;99.90;;;;;;5016507;28;20053;-89
2021/12/08 02:50:59;;;;;;;13.88;4.70;;;3.60;99.90;;;;;;5015898;28;20054;-89
2021/12/08 02:53:25;;;;;;;11.00;5.63;;;3.80;99.90;;;;;;5015667;28;20054;-90
2021/12/08 02:55:51;;;;;;;16.38;6.50;;;3.30;99.90;;;;;;5015136;28;20116;-90
2021/12/08 02:58:17;;;;;;;8.90;4.70;;;3.20;99.90;;;;;;5014207;28;20050;-89
2021/12/08 03:00:50;;;;;;;17.08;6.30;;;3.30;99.90;;;;;;5014174;28;20046;-89
2021/12/08 03:03:16;;;;;;;12.52;5.30;;;3.30;99.90;;;;;;5013702;28;20057;-89
2021/12/08 03:05:42;;;;;;;10.43;4.68;;;3.20;99.90;;;;;;4997685;28;20054;-90
2021/12/08 03:08:11;;;;;;;14.18;5.60;;;3.80;99.90;;;;;;5013321;28;20066;-89
2021/12/08 03:10:41;;;;;;;12.95;5.35;;;2.80;99.90;;;;;;5015049;28;20042;-89
2021/12/08 03:13:08;;;;;;;12.02;5.50;;;3.90;99.90;;;;;;4997870;28;20094;-89
2021/12/08 03:15:38;;;;;;;11.30;5.80;;;2.50;99.90;;;;;;5013959;28;20045;-89
2021/12/08 03:18:04;;;;;;;15.82;6.30;;;3.20;99.90;;;;;;5013667;28;20060;-89
2021/12/08 03:20:49;;;;;;;16.48;5.75;;;3.70;99.90;;;;;;4996936;28;20042;-90
2021/12/08 03:23:28;;;;;;;10.77;5.93;;;3.40;99.90;;;;;;5013059;28;20069;-89
2021/12/08 03:26:01;;;;;;;14.52;5.45;;;3.50;99.90;;;;;;4997212;28;20114;-89
2021/12/08 03:28:32;;;;;;;10.95;5.18;;;3.50;99.90;;;;;;4997767;28;20038;-90
2021/12/08 03:31:12;;;;;;;12.18;6.10;;;4.00;99.90;;;;;;4997689;28;20050;-90
2021/12/08 03:33:38;;;;;;;15.00;6.72;;;3.70;99.90;;;;;;4997507;28;20022;-89
2021/12/08 03:36:05;;;;;;;12.43;7.07;;;3.60;99.90;;;;;;4997345;28;20038;-89
2021/12/08 03:38:31;;;;;;;12.95;6.20;;;3.50;99.90;;;;;;5014621;28;20171;-89
2021/12/08 03:40:59;;;;;;;15.48;6.82;;;3.50;99.90;;;;;;4998147;28;20043;-88
2021/12/08 03:43:25;;;;;;;11.82;6.82;;;3.60;99.90;;;;;;4997839;28;20034;-90
2021/12/08 03:45:53;;;;;;;13.07;6.10;;;3.90;99.90;;;;;;5014309;28;20065;-89
2021/12/08 03:48:27;;;;;;;9.80;5.90;;;4.00;99.90;;;;;;4996980;28;20041;-89
2021/12/08 03:50:54;;;;;;;19.80;7.20;;;3.60;99.90;;;;;;5013758;28;20041;-89
2021/12/08 03:53:21;;;;;;;18.92;7.47;;;3.60;99.90;;;;;;4997275;28;20061;-90
2021/12/08 03:55:49;;;;;;;18.60;8.20;;;3.70;99.90;;;;;;4997618;28;20054;-89
2021/12/08 03:58:15;;;;;;;16.33;8.52;;;3.60;99.90;;;;;;5013399;28;20042;-89
2021/12/08 04:00:43;;;;;;;11.85;7.00;;;4.00;99.90;;;;;;4997278;28;20061;-89
2021/12/08 04:03:09;;;;;;;16.13;7.68;;;4.10;99.90;;;;;;4996988;28;20038;-89
2021/12/08 04:05:45;;;;;;;16.38;7.90;;;4.40;99.90;;;;;;5013002;28;20041;-89
2021/12/08 04:08:18;;;;;;;10.50;6.45;;;3.80;99.90;;;;;;5012981;28;20034;-89
2021/12/08 04:10:47;;;;;;;15.02;9.05;;;4.00;99.90;;;;;;5013205;28;20039;-89
2021/12/08 04:13:14;;;;;;;22.25;9.75;;;3.80;99.90;;;;;;4996911;28;20042;-89
2021/12/08 04:15:40;;;;;;;13.85;7.90;;;3.90;99.90;;;;;;5013400;28;20030;-89
2021/12/08 04:18:06;;;;;;;;;;;3.60;99.90;;;;;;4997089;28;20053;-90
2021/12/08 04:20:38;;;;;;;17.45;9.35;;;3.90;99.90;;;;;;5000727;28;19918;-89
2021/12/08 04:23:08;;;;;;;17.27;10.13;;;4.50;99.90;;;;;;5000641;28;20045;-89
2021/12/08 04:25:39;;;;;;;19.33;10.63;;;3.30;99.90;;;;;;5001065;28;20038;-89
2021/12/08 04:28:09;;;;;;;23.42;10.80;;;4.40;99.90;;;;;;5016899;28;20065;-89
2021/12/08 04:30:42;;;;;;;21.15;11.07;;;3.80;99.90;;;;;;5000840;28;20027;-90
2021/12/08 04:33:09;;;;;;;24.30;10.75;;;3.90;99.90;;;;;;5017978;28;20018;-87
2021/12/08 04:35:36;;;;;;;16.20;10.35;;;4.00;99.90;;;;;;5017163;28;20054;-89
2021/12/08 04:38:11;;;;;;;15.88;10.50;;;3.90;99.90;;;;;;5000641;28;20101;-88
2021/12/08 04:41:05;;;;;;;14.88;8.02;;;3.90;99.90;;;;;;5001077;28;20058;-88
2021/12/08 04:43:43;;;;;;;18.20;10.98;;;4.10;99.90;;;;;;5017191;28;20110;-88
2021/12/08 04:46:22;;;;;;;18.40;11.27;;;3.90;99.90;;;;;;5017141;28;20041;-89
2021/12/08 04:49:20;;;;;;;15.52;7.85;;;4.10;99.90;;;;;;5000402;28;20066;-88
2021/12/08 05:05:49;;;;;;;24.83;11.93;;;4.30;99.90;;;;;;5016333;28;20177;-88
2021/12/08 05:08:22;;;;;;;17.90;11.93;;;4.30;99.90;;;;;;5015008;28;20057;-88
2021/12/08 05:10:53;;;;;;;21.02;12.90;;;5.20;99.90;;;;;;4999975;28;20034;-88
2021/12/08 05:13:20;;;;;;;18.45;10.85;;;4.30;99.90;;;;;;5015809;28;20041;-89
2021/12/08 05:15:55;;;;;;;20.75;13.73;;;4.80;99.90;;;;;;5015695;28;20038;-88
2021/12/08 05:18:36;;;;;;;18.60;10.77;;;4.40;99.90;;;;;;5015630;28;20043;-88
2021/12/08 05:21:18;;;;;;;16.42;10.80;;;4.50;99.90;;;;;;5015762;28;20069;-87
2021/12/08 05:24:04;;;;;;;21.42;10.68;;;3.80;99.90;;;;;;5015924;28;20030;-88
2021/12/08 05:26:45;;;;;;;18.63;11.48;;;4.50;99.90;;;;;;5016483;28;20137;-88
2021/12/08 05:29:21;;;;;;;26.90;12.55;;;4.50;99.90;;;;;;4999684;28;20038;-88
2021/12/08 05:31:48;;;;;;;16.63;9.85;;;4.90;99.90;;;;;;4998955;28;20104;-88
2021/12/08 05:34:14;;;;;;;18.65;10.50;;;4.80;99.90;;;;;;5015918;28;20102;-88
2021/12/08 05:36:40;;;;;;;20.23;11.57;;;4.60;99.90;;;;;;5015621;28;20030;-87
2021/12/08 05:39:13;;;;;;;23.63;11.95;;;4.60;99.90;;;;;;5015815;28;20034;-88
2021/12/08 05:41:44;;;;;;;17.85;10.38;;;5.20;99.90;;;;;;5015483;28;20038;-88
2021/12/08 05:44:11;;;;;;;14.77;8.43;;;4.50;99.90;;;;;;5015885;28;20040;-88
2021/12/08 05:46:42;;;;;;;17.77;10.60;;;4.80;99.90;;;;;;4999468;28;20058;-88
2021/12/08 05:49:12;;;;;;;16.73;10.07;;;5.00;99.90;;;;;;5015486;28;20026;-88
2021/12/08 05:51:40;;;;;;;16.15;10.07;;;5.30;99.90;;;;;;4999126;28;20101;-88
2021/12/08 05:54:19;;;;;;;15.57;9.88;;;5.10;99.90;;;;;;4999087;28;20022;-88
2021/12/08 05:56:46;;;;;;;13.98;8.15;;;4.70;99.90;;;;;;5015379;28;20057;-88
2021/12/08 05:59:14;;;;;;;17.80;9.00;;;4.80;99.90;;;;;;4998820;28;20037;-87
2021/12/08 06:01:49;;;;;;;16.10;8.43;;;4.70;99.90;;;;;;4998785;28;20060;-88
2021/12/08 06:04:15;;;;;;;12.48;8.88;;;4.80;99.90;;;;;;5015924;28;20034;-87
2021/12/08 06:06:41;;;;;;;;;;;4.90;99.90;;;;;;5015391;28;20062;-88
2021/12/08 06:09:11;;;;;;;14.40;8.48;;;5.70;99.90;;;;;;4998358;28;19909;-88
2021/12/08 06:11:37;;;;;;;12.73;7.80;;;5.40;99.90;;;;;;5014630;28;20101;-89
2021/12/08 06:14:07;;;;;;;15.90;8.32;;;5.00;99.90;;;;;;5014555;28;20033;-88
2021/12/08 06:16:36;;;;;;;10.45;7.25;;;5.70;99.90;;;;;;5014630;28;20038;-88
2021/12/08 06:19:02;;;;;;;13.75;8.20;;;4.80;99.90;;;;;;4998311;28;20042;-88
2021/12/08 06:21:28;;;;;;;;;;;5.00;99.90;;;;;;5015300;28;20057;-87
2021/12/08 06:23:56;;;;;;;14.43;8.35;;;4.90;99.90;;;;;;5014335;28;19910;-88
2021/12/08 06:26:25;;;;;;;12.10;6.30;;;5.30;99.90;;;;;;5015092;28;20082;-88
2021/12/08 06:28:51;;;;;;;16.55;8.18;;;5.00;99.90;;;;;;4998442;28;20055;-88
2021/12/08 06:31:18;;;;;;;15.20;7.55;;;5.00;99.90;;;;;;5014526;28;20042;-88
2021/12/08 06:33:44;;;;;;;13.25;6.50;;;5.30;99.90;;;;;;5014660;28;20102;-88
2021/12/08 06:36:15;;;;;;;17.88;7.05;;;5.80;99.90;;;;;;4998005;28;20034;-88
2021/12/08 06:38:42;;;;;;;12.35;7.53;;;5.00;99.90;;;;;;5014601;28;20065;-88
2021/12/08 06:41:21;;;;;;;13.27;7.78;;;4.80;99.90;;;;;;5014495;28;20058;-88
2021/12/08 06:43:51;;;;;;;14.00;7.50;;;5.10;99.90;;;;;;5014227;28;20085;-89
2021/12/08 06:46:17;;;;;;;15.52;6.57;;;5.30;99.90;;;;;;4998137;28;20110;-89
2021/12/08 06:48:45;;;;;;;;;;;4.70;99.90;;;;;;5013692;28;20039;-88
2021/12/08 06:51:39;;;;;;;13.95;6.55;;;4.80;99.90;;;;;;5014173;28;19909;-88
2021/12/08 06:54:13;;;;;;;13.52;6.55;;;4.90;99.90;;;;;;5013325;28;20065;-89
2021/12/08 06:56:46;;;;;;;10.38;6.32;;;4.90;99.90;;;;;;4997311;28;20027;-89
2021/12/08 06:59:17;;;;;;;11.85;5.55;;;4.80;99.90;;;;;;5013061;28;20061;-89
2021/12/08 07:01:53;;;;;;;12.68;6.03;;;4.60;99.90;;;;;;4996639;28;20034;-89
2021/12/08 07:04:52;;;;;;;8.98;5.63;;;4.80;99.90;;;;;;5025475;28;20049;-89
2021/12/08 07:07:19;;;;;;;10.68;4.85;;;4.90;99.90;;;;;;5022857;28;20053;-90
2021/12/08 07:09:56;;;;;;;11.18;5.43;;;4.90;99.90;;;;;;5032107;28;20026;-89
2021/12/08 07:12:34;;;;;;;14.00;6.38;;;4.80;99.90;;;;;;5016820;28;20048;-89
2021/12/08 07:15:15;;;;;;;11.85;5.28;;;4.80;99.90;;;;;;5017050;28;20061;-89
2021/12/08 07:17:44;;;;;;;13.10;5.03;;;4.70;99.90;;;;;;5034452;28;20037;-89
2021/12/08 07:20:33;;;;;;;13.10;5.50;;;4.60;99.90;;;;;;5033647;28;20065;-90
2021/12/08 07:23:00;;;;;;;14.85;5.82;;;5.40;99.90;;;;;;5032345;28;20072;-89
2021/12/08 07:25:28;;;;;;;15.98;5.93;;;4.80;99.90;;;;;;5015631;28;20026;-88
2021/12/08 07:27:56;;;;;;;10.65;5.20;;;4.40;99.90;;;;;;5015361;28;20033;-89
2021/12/08 07:30:30;;;;;;;8.18;4.38;;;4.50;99.90;;;;;;5015246;28;20026;-89
2021/12/08 07:32:57;;;;;;;10.88;4.40;;;4.60;99.90;;;;;;5015151;28;20041;-90
2021/12/08 07:35:28;;;;;;;10.73;4.30;;;4.40;99.90;;;;;;5031404;28;20022;-89
2021/12/08 07:37:56;;;;;;;14.10;4.55;;;5.10;99.90;;;;;;5015308;28;20061;-89
2021/12/08 07:40:48;;;;;;;12.77;4.10;;;4.50;99.90;;;;;;5015175;28;20057;-88
2021/12/08 07:43:16;;;;;;;18.20;4.65;;;4.40;99.90;;;;;;5009646;28;20033;-89
2021/12/08 07:46:02;;;;;;;16.45;5.55;;;4.60;99.90;;;;;;5015166;28;20060;-89
2021/12/08 07:48:34;;;;;;;14.98;4.22;;;4.30;99.90;;;;;;5031526;28;20068;-89
2021/12/08 07:51:23;;;;;;;9.65;3.80;;;4.60;99.90;;;;;;5031166;28;20073;-89
2021/12/08 07:53:49;;;;;;;7.50;2.92;;;4.20;99.90;;;;;;5014786;28;20046;-89
2021/12/08 07:56:19;;;;;;;8.55;3.78;;;4.50;99.90;;;;;;5015029;28;20041;-89
2021/12/08 07:58:52;;;;;;;15.23;3.45;;;4.40;99.90;;;;;;5014935;28;20064;-88
2021/12/08 08:01:31;;;;;;;17.70;5.15;;;4.50;99.90;;;;;;5032180;28;20034;-89
2021/12/08 08:03:57;;;;;;;11.48;3.45;;;4.20;99.90;;;;;;5031542;28;20038;-89
2021/12/08 08:06:28;;;;;;;12.32;4.05;;;4.20;99.90;;;;;;5014652;28;20053;-88
2021/12/08 08:08:54;;;;;;;11.60;3.60;;;4.20;99.90;;;;;;5014785;28;20038;-89
2021/12/08 08:11:26;;;;;;;9.88;3.85;;;4.20;99.90;;;;;;5030693;28;20041;-89
2021/12/08 08:13:51;;;;;;;10.80;3.55;;;4.20;99.90;;;;;;5027624;28;20030;-88
2021/12/08 08:16:22;;;;;;;11.23;3.85;;;4.20;99.90;;;;;;5012937;28;20047;-89
2021/12/08 08:18:56;;;;;;;10.05;3.58;;;4.20;99.90;;;;;;5012258;28;20066;-89
2021/12/08 08:21:26;;;;;;;11.57;3.40;;;4.20;99.90;;;;;;4995237;28;20372;-89
2021/12/08 08:23:54;;;;;;;9.63;3.03;;;4.20;99.90;;;;;;5011624;28;20038;-89
2021/12/08 08:26:20;;;;;;;12.52;3.40;;;4.30;99.90;;;;;;4996210;28;20069;-89
2021/12/08 08:28:50;;;;;;;;;;;4.30;99.90;;;;;;5031545;28;20089;-89
2021/12/08 08:31:30;;;;;;;5.15;2.50;;;4.40;99.90;;;;;;5014663;28;19932;-89
2021/12/08 08:33:56;;;;;;;8.48;2.92;;;4.80;99.90;;;;;;5030602;28;20042;-89
2021/12/08 08:36:26;;;;;;;7.88;2.85;;;4.50;99.90;;;;;;5031154;28;20045;-89
2021/12/08 08:39:05;;;;;;;5.88;2.65;;;4.30;99.90;;;;;;5031061;28;20117;-89
2021/12/08 08:41:40;;;;;;;13.95;3.58;;;4.40;99.90;;;;;;5030932;28;20061;-89
2021/12/08 08:44:20;;;;;;;7.00;2.67;;;4.90;99.90;;;;;;5030815;28;20042;-90
2021/12/08 08:46:48;;;;;;;11.32;3.20;;;4.40;99.90;;;;;;5030977;28;20038;-89
2021/12/08 08:49:21;;;;;;;11.15;3.03;;;4.40;99.90;;;;;;5031054;28;20050;-89
2021/12/08 08:52:00;;;;;;;7.90;2.70;;;4.50;99.90;;;;;;5031969;28;20108;-89
2021/12/08 08:54:39;;;;;;;9.68;2.17;;;4.20;99.90;;;;;;5030978;28;20042;-89
2021/12/08 08:57:30;;;;;;;10.30;3.45;;;4.50;99.90;;;;;;5044994;28;20026;-90
2021/12/08 09:00:16;;;;;;;5.05;2.22;;;5.10;99.90;;;;;;5046882;28;20101;-89
2021/12/08 09:02:57;;;;;;;12.07;2.67;;;5.20;99.90;;;;;;5016881;28;20042;-88
2021/12/08 09:05:34;;;;;;;11.45;2.35;;;4.80;99.90;;;;;;5031074;28;20110;-88
2021/12/08 09:08:01;;;;;;;7.88;2.38;;;5.00;99.90;;;;;;5034391;28;20029;-88
2021/12/08 09:10:59;;;;;;;9.77;1.83;;;5.10;99.90;;;;;;5034147;28;20037;-89
2021/12/08 09:13:35;;;;;;;7.20;1.65;;;5.30;99.90;;;;;;5032287;28;20033;-88
2021/12/08 09:16:15;;;;;;;8.57;2.58;;;5.10;99.90;;;;;;5017097;28;20038;-88
2021/12/08 09:18:57;;;;;;;8.85;1.40;;;6.00;99.90;;;;;;5017403;28;20046;-88
2021/12/08 09:21:40;;;;;;;8.02;2.47;;;5.80;99.90;;;;;;5019024;28;20094;-88
2021/12/08 09:24:09;;;;;;;9.98;2.33;;;5.30;99.90;;;;;;5018857;28;20378;-88
2021/12/08 09:26:49;;;;;;;9.52;2.58;;;5.30;99.90;;;;;;5018326;28;20061;-88
2021/12/08 09:29:27;;;;;;;10.40;2.90;;;5.30;99.90;;;;;;5018290;28;20102;-89
2021/12/08 09:32:04;;;;;;;5.93;1.60;;;5.20;99.90;;;;;;5018323;28;20468;-89
2021/12/08 09:34:45;;;;;;;9.02;2.35;;;6.00;99.90;;;;;;5017777;28;20044;-88
2021/12/08 09:37:20;;;;;;;5.78;1.80;;;5.30;99.90;;;;;;5034521;28;20050;-88
2021/12/08 09:39:59;;;;;;;12.02;2.45;;;5.70;99.90;;;;;;5034453;28;20345;-88
2021/12/08 09:42:34;;;;;;;12.23;2.47;;;5.20;99.90;;;;;;5034503;28;20097;-89
2021/12/08 09:45:15;;;;;;;8.93;2.03;;;5.20;99.90;;;;;;5034488;28;20038;-90
2021/12/08 09:47:42;;;;;;;10.02;2.40;;;5.40;99.90;;;;;;5034233;28;20101;-89
2021/12/08 09:50:11;;;;;;;5.93;1.77;;;5.70;99.90;;;;;;5113645;23;20098;-88
2021/12/08 09:52:39;;;;;;;11.80;1.98;;;5.20;99.90;;;;;;5035599;28;20034;-89
2021/12/08 09:55:09;;;;;;;7.30;1.98;;;5.50;99.90;;;;;;5019363;28;20255;-89
2021/12/08 09:57:34;;;;;;;14.18;2.67;;;5.20;99.90;;;;;;5035875;28;20021;-89
2021/12/08 10:00:00;;;;;;;8.63;2.30;;;5.60;99.90;;;;;;5017395;28;20068;-89
2021/12/08 10:02:34;;;;;;;8.48;2.92;;;4.80;99.90;;;;;;5017189;28;20092;-89
2021/12/08 10:05:11;;;;;;;10.00;2.05;;;5.70;99.90;;;;;;5017358;28;20029;-89
2021/12/08 10:07:37;;;;;;;;;;;5.50;99.90;;;;;;5034726;28;20026;-88
2021/12/08 10:10:07;;;;;;;10.48;2.35;;;6.10;99.90;;;;;;5017569;28;19932;-88
2021/12/08 10:12:35;;;;;;;11.50;2.00;;;5.70;99.90;;;;;;5016719;28;20033;-88
2021/12/08 10:15:02;;;;;;;12.13;2.70;;;5.80;99.90;;;;;;5033388;28;20037;-88
2021/12/08 10:17:28;;;;;;;11.02;2.22;;;6.30;99.90;;;;;;5016898;28;20026;-87
2021/12/08 10:20:19;;;;;;;11.73;2.55;;;6.00;99.90;;;;;;5016629;28;20026;-87
2021/12/08 10:23:11;;;;;;;11.52;1.77;;;5.70;99.90;;;;;;5016480;28;20037;-89
2021/12/08 10:25:47;;;;;;;13.27;4.00;;;5.70;99.90;;;;;;5017340;28;20041;-87
2021/12/08 10:28:15;;;;;;;10.32;1.63;;;5.60;99.90;;;;;;5029986;28;20062;-89
2021/12/08 10:30:48;;;;;;;10.48;3.33;;;5.70;99.90;;;;;;4999199;28;20116;-88
2021/12/08 10:34:01;;;;;;;5.28;1.80;;;6.00;99.90;;;;;;4998780;28;20037;-88
2021/12/08 10:39:07;;;;;;;12.38;3.63;;;5.50;99.90;;;;;;5031555;28;20103;-89
2021/12/08 10:41:52;;;;;;;14.65;2.53;;;5.80;99.90;;;;;;4998818;28;20022;-89
2021/12/08 10:44:27;;;;;;;15.80;3.15;;;5.50;99.90;;;;;;4998872;28;20073;-88
2021/12/08 10:46:59;;;;;;;7.38;2.47;;;5.70;99.90;;;;;;4999151;28;20034;-89
2021/12/08 10:54:49;;;;;;;7.55;2.17;;;5.50;99.90;;;;;;5031988;28;20034;-88
2021/12/08 10:57:38;;;;;;;11.02;2.55;;;5.60;99.90;;;;;;4999444;28;20057;-88
2021/12/08 11:00:20;;;;;;;11.50;2.25;;;5.90;99.90;;;;;;4999302;28;20018;-88
2021/12/08 11:03:00;;;;;;;6.97;2.13;;;5.50;99.90;;;;;;4998185;28;20046;-89
2021/12/08 11:05:26;;;;;;;7.85;2.00;;;6.00;99.90;;;;;;4997322;28;20118;-89
2021/12/08 11:10:56;;;;;;;12.75;2.92;;;5.80;99.90;;;;;;5080780;23;19974;-88
2021/12/08 11:13:27;;;;;;;11.50;2.13;;;6.20;99.90;;;;;;4998282;28;20041;-89
2021/12/08 11:16:33;;;;;;;8.55;2.13;;;5.70;99.90;;;;;;4982241;28;20089;-88
2021/12/08 11:19:13;;;;;;;8.38;2.65;;;5.90;99.90;;;;;;4996976;28;20038;-89
2021/12/08 11:21:48;;;;;;;9.70;2.70;;;6.00;99.90;;;;;;4980214;28;20037;-88
2021/12/08 11:24:20;;;;;;;11.20;2.47;;;6.70;99.90;;;;;;4979772;28;20093;-89
2021/12/08 11:26:50;;;;;;;5.13;1.70;;;6.20;99.90;;;;;;4979310;28;20126;-88
2021/12/08 11:29:20;;;;;;;16.77;4.55;;;6.40;99.90;;;;;;4994021;28;20042;-88
2021/12/08 11:31:52;;;;;;;7.30;2.08;;;6.40;99.90;;;;;;4979394;28;20053;-89
2021/12/08 11:34:31;;;;;;;7.28;1.70;;;6.80;99.90;;;;;;4981068;28;20034;-89
2021/12/08 11:37:03;;;;;;;7.50;2.13;;;6.50;99.90;;;;;;4981440;28;20057;-89
2021/12/08 11:39:47;;;;;;;11.70;2.25;;;7.10;99.90;;;;;;4996623;28;20100;-88
2021/12/08 11:42:25;;;;;;;12.07;3.85;;;6.40;99.90;;;;;;4978417;28;20046;-88
2021/12/08 11:44:56;;;;;;;13.43;3.22;;;6.50;99.90;;;;;;4991405;28;20034;-88
2021/12/08 11:47:27;;;;;;;7.40;2.03;;;6.20;99.90;;;;;;4975562;28;20039;-88
2021/12/08 11:49:59;;;;;;;10.82;2.47;;;6.50;99.90;;;;;;4959470;28;20090;-89
2021/12/08 11:52:32;;;;;;;7.53;1.98;;;6.50;99.90;;;;;;4959400;28;20058;-89
2021/12/08 11:55:11;;;;;;;12.75;3.67;;;6.50;99.90;;;;;;4958332;28;20045;-89
2021/12/08 11:57:40;;;;;;;8.88;2.17;;;6.50;99.90;;;;;;4974250;28;20044;-89
2021/12/08 12:00:21;;;;;;;11.38;2.95;;;6.40;99.90;;;;;;4968971;28;20046;-88
2021/12/08 12:02:58;;;;;;;8.48;2.53;;;6.40;99.90;;;;;;4978268;28;20042;-88
2021/12/08 15:32:38;;;;;;;8.52;1.85;;;4.00;99.90;;;;;;4979290;28;20048;-87
